createdAt,value
2023-01-11T00:12:44.450Z,86.6
2023-01-11T00:32:44.462Z,86.3
2023-01-11T00:52:44.476Z,86.3
2023-01-11T01:12:44.485Z,88.0
2023-01-11T01:32:44.505Z,87.7
2023-01-11T01:52:44.513Z,87.8
2023-01-11T02:12:44.555Z,88.5
2023-01-11T02:32:44.529Z,90.0
2023-01-11T02:52:44.556Z,91.1
2023-01-11T03:12:44.453Z,91.5
2023-01-11T03:32:44.471Z,91.4
2023-01-11T03:52:44.479Z,90.6
2023-01-11T04:12:44.521Z,90.0
2023-01-11T04:32:44.516Z,89.6
2023-01-11T04:52:44.510Z,89.6
2023-01-11T05:12:44.530Z,89.9
2023-01-11T05:32:44.545Z,90.0
2023-01-11T05:52:44.453Z,89.8
2023-01-11T06:12:44.461Z,90.1
2023-01-11T06:32:44.478Z,90.7
2023-01-11T06:52:44.492Z,89.7
2023-01-11T07:12:44.510Z,90.3
2023-01-11T07:32:44.516Z,90.5
2023-01-11T07:52:44.551Z,91.1
2023-01-11T08:12:44.450Z,90.8
2023-01-11T08:32:44.517Z,87.8
2023-01-11T08:52:44.474Z,85.4
2023-01-11T09:12:44.594Z,84.9
2023-01-11T09:32:44.522Z,85.8
2023-01-11T09:52:44.441Z,85.5
2023-01-11T10:18:21.470Z,85.0
2023-01-11T10:32:44.447Z,81.3
2023-01-11T10:52:44.470Z,78.8
2023-01-11T11:12:44.529Z,77.6
2023-01-11T11:32:44.467Z,75.9
2023-01-11T11:52:44.416Z,76.4
2023-01-11T12:12:44.426Z,76.6
2023-01-11T12:32:44.343Z,72.9
2023-01-11T12:52:44.352Z,74.5
2023-01-11T13:12:44.360Z,74.8
2023-01-11T13:32:44.422Z,76.8
2023-01-11T14:12:44.336Z,77.8
2023-01-11T14:32:44.345Z,83.9
2023-01-11T14:52:44.271Z,86.9
2023-01-11T15:12:44.277Z,88.5
2023-01-11T15:32:44.293Z,89.7
2023-01-11T15:52:44.299Z,90.9
2023-01-11T16:12:44.215Z,90.2
2023-01-11T16:32:44.241Z,90.2
2023-01-11T16:52:44.240Z,91.4
2023-01-11T17:12:44.245Z,92.0
2023-01-11T17:32:44.314Z,92.5
2023-01-11T17:52:44.274Z,92.7
2023-01-11T18:12:44.189Z,92.8
2023-01-11T18:32:44.200Z,92.8
2023-01-11T18:52:44.219Z,92.6
2023-01-11T19:12:44.234Z,92.5
2023-01-11T19:32:44.227Z,92.5
2023-01-11T19:52:44.135Z,92.3
2023-01-11T20:12:44.150Z,92.3
2023-01-11T20:32:44.164Z,92.6
2023-01-11T20:52:44.176Z,92.8
2023-01-11T21:12:44.299Z,92.9
2023-01-11T21:32:44.099Z,92.6
2023-01-11T21:52:44.108Z,92.1
2023-01-11T22:12:44.120Z,90.7
2023-01-11T22:32:44.212Z,89.5
2023-01-11T22:52:44.142Z,88.5
2023-01-11T23:12:44.151Z,88.3
2023-01-11T23:32:44.154Z,87.0
2023-01-11T23:52:44.060Z,87.5
